sensor_id;sensor_type;location;lat;lon;timestamp;temperature;humidity
79244;SHT31;68672;42.676;23.356;2023-04-24T00:00:57;13.59;49.51
79244;SHT31;68672;42.676;23.356;2023-04-24T00:03:23;13.57;49.38
79244;SHT31;68672;42.676;23.356;2023-04-24T00:05:49;13.55;48.85
79244;SHT31;68672;42.676;23.356;2023-04-24T00:08:15;13.51;48.71
79244;SHT31;68672;42.676;23.356;2023-04-24T00:10:41;13.50;48.83
79244;SHT31;68672;42.676;23.356;2023-04-24T00:13:06;13.45;48.86
79244;SHT31;68672;42.676;23.356;2023-04-24T00:15:32;13.42;48.97
79244;SHT31;68672;42.676;23.356;2023-04-24T00:17:58;13.41;48.93
79244;SHT31;68672;42.676;23.356;2023-04-24T00:20:23;13.28;49.15
79244;SHT31;68672;42.676;23.356;2023-04-24T00:22:49;13.18;49.47
79244;SHT31;68672;42.676;23.356;2023-04-24T00:25:14;13.10;49.78
79244;SHT31;68672;42.676;23.356;2023-04-24T00:27:40;13.07;49.87
79244;SHT31;68672;42.676;23.356;2023-04-24T00:30:06;13.06;50.09
79244;SHT31;68672;42.676;23.356;2023-04-24T00:32:34;13.00;50.56
79244;SHT31;68672;42.676;23.356;2023-04-24T00:35:00;12.99;50.93
79244;SHT31;68672;42.676;23.356;2023-04-24T00:37:28;12.99;51.16
79244;SHT31;68672;42.676;23.356;2023-04-24T00:40:03;12.99;51.21
79244;SHT31;68672;42.676;23.356;2023-04-24T00:42:28;13.00;51.39
79244;SHT31;68672;42.676;23.356;2023-04-24T00:44:57;12.94;52.31
79244;SHT31;68672;42.676;23.356;2023-04-24T00:47:26;12.92;53.29
79244;SHT31;68672;42.676;23.356;2023-04-24T00:49:51;12.90;53.59
79244;SHT31;68672;42.676;23.356;2023-04-24T00:52:17;12.86;54.20
79244;SHT31;68672;42.676;23.356;2023-04-24T00:54:45;12.84;54.53
79244;SHT31;68672;42.676;23.356;2023-04-24T00:57:13;12.87;55.05
79244;SHT31;68672;42.676;23.356;2023-04-24T00:59:39;12.84;55.41
79244;SHT31;68672;42.676;23.356;2023-04-24T01:02:06;12.84;55.39
79244;SHT31;68672;42.676;23.356;2023-04-24T01:04:34;12.82;55.57
79244;SHT31;68672;42.676;23.356;2023-04-24T01:07:00;12.84;55.17
79244;SHT31;68672;42.676;23.356;2023-04-24T01:09:28;12.86;55.49
79244;SHT31;68672;42.676;23.356;2023-04-24T01:11:54;12.86;55.09
79244;SHT31;68672;42.676;23.356;2023-04-24T01:14:23;12.87;54.48
79244;SHT31;68672;42.676;23.356;2023-04-24T01:16:48;12.93;54.32
79244;SHT31;68672;42.676;23.356;2023-04-24T01:19:15;12.92;54.26
79244;SHT31;68672;42.676;23.356;2023-04-24T01:21:45;12.94;53.86
79244;SHT31;68672;42.676;23.356;2023-04-24T01:24:12;12.97;53.25
79244;SHT31;68672;42.676;23.356;2023-04-24T01:26:38;12.93;53.08
79244;SHT31;68672;42.676;23.356;2023-04-24T01:29:06;12.93;53.41
79244;SHT31;68672;42.676;23.356;2023-04-24T01:31:32;12.99;53.18
79244;SHT31;68672;42.676;23.356;2023-04-24T01:33:58;12.90;52.99
79244;SHT31;68672;42.676;23.356;2023-04-24T01:36:24;12.84;52.79
79244;SHT31;68672;42.676;23.356;2023-04-24T01:38:51;12.77;53.02
79244;SHT31;68672;42.676;23.356;2023-04-24T01:41:16;12.72;53.22
79244;SHT31;68672;42.676;23.356;2023-04-24T01:43:45;12.60;54.00
79244;SHT31;68672;42.676;23.356;2023-04-24T01:46:11;12.49;53.63
79244;SHT31;68672;42.676;23.356;2023-04-24T01:48:36;12.43;53.79
79244;SHT31;68672;42.676;23.356;2023-04-24T01:51:04;12.38;54.35
79244;SHT31;68672;42.676;23.356;2023-04-24T01:53:30;12.35;54.61
79244;SHT31;68672;42.676;23.356;2023-04-24T01:55:55;12.36;54.83
79244;SHT31;68672;42.676;23.356;2023-04-24T01:58:21;12.31;54.65
79244;SHT31;68672;42.676;23.356;2023-04-24T02:00:47;12.25;54.37
79244;SHT31;68672;42.676;23.356;2023-04-24T02:03:12;12.22;54.64
79244;SHT31;68672;42.676;23.356;2023-04-24T02:05:38;12.21;55.21
79244;SHT31;68672;42.676;23.356;2023-04-24T02:08:03;12.17;55.38
79244;SHT31;68672;42.676;23.356;2023-04-24T02:10:29;12.15;55.69
79244;SHT31;68672;42.676;23.356;2023-04-24T02:12:54;12.11;55.85
79244;SHT31;68672;42.676;23.356;2023-04-24T02:15:20;11.99;56.28
79244;SHT31;68672;42.676;23.356;2023-04-24T02:17:45;11.93;57.22
79244;SHT31;68672;42.676;23.356;2023-04-24T02:20:13;11.85;57.09
79244;SHT31;68672;42.676;23.356;2023-04-24T02:22:39;11.83;57.36
79244;SHT31;68672;42.676;23.356;2023-04-24T02:25:05;11.74;58.27
79244;SHT31;68672;42.676;23.356;2023-04-24T02:27:30;11.63;57.77
79244;SHT31;68672;42.676;23.356;2023-04-24T02:29:56;11.53;57.62
79244;SHT31;68672;42.676;23.356;2023-04-24T02:32:21;11.42;58.08
79244;SHT31;68672;42.676;23.356;2023-04-24T02:34:47;11.39;58.38
79244;SHT31;68672;42.676;23.356;2023-04-24T02:37:12;11.29;58.29
79244;SHT31;68672;42.676;23.356;2023-04-24T02:39:40;11.27;58.32
79244;SHT31;68672;42.676;23.356;2023-04-24T02:42:08;11.25;58.82
79244;SHT31;68672;42.676;23.356;2023-04-24T02:44:33;11.26;58.98
79244;SHT31;68672;42.676;23.356;2023-04-24T02:46:59;11.22;58.91
79244;SHT31;68672;42.676;23.356;2023-04-24T02:49:24;11.19;59.41
79244;SHT31;68672;42.676;23.356;2023-04-24T02:51:51;11.20;59.36
79244;SHT31;68672;42.676;23.356;2023-04-24T02:54:16;11.23;59.27
79244;SHT31;68672;42.676;23.356;2023-04-24T02:56:44;11.22;59.26
79244;SHT31;68672;42.676;23.356;2023-04-24T02:59:10;11.20;59.54
79244;SHT31;68672;42.676;23.356;2023-04-24T03:01:35;11.20;59.52
79244;SHT31;68672;42.676;23.356;2023-04-24T03:04:05;11.19;59.18
79244;SHT31;68672;42.676;23.356;2023-04-24T03:06:30;11.18;58.99
79244;SHT31;68672;42.676;23.356;2023-04-24T03:08:58;11.20;59.35
79244;SHT31;68672;42.676;23.356;2023-04-24T03:11:23;11.15;59.71
79244;SHT31;68672;42.676;23.356;2023-04-24T03:13:49;11.12;59.62
79244;SHT31;68672;42.676;23.356;2023-04-24T03:16:14;11.06;59.80
79244;SHT31;68672;42.676;23.356;2023-04-24T03:18:40;11.05;59.87
79244;SHT31;68672;42.676;23.356;2023-04-24T03:21:05;11.02;59.80
79244;SHT31;68672;42.676;23.356;2023-04-24T03:23:31;11.02;59.87
79244;SHT31;68672;42.676;23.356;2023-04-24T03:25:56;10.99;60.04
79244;SHT31;68672;42.676;23.356;2023-04-24T03:28:21;10.96;60.22
79244;SHT31;68672;42.676;23.356;2023-04-24T03:30:47;10.95;60.18
79244;SHT31;68672;42.676;23.356;2023-04-24T03:33:12;10.94;60.50
79244;SHT31;68672;42.676;23.356;2023-04-24T03:35:41;10.88;60.58
79244;SHT31;68672;42.676;23.356;2023-04-24T03:38:07;10.84;60.56
79244;SHT31;68672;42.676;23.356;2023-04-24T03:40:32;10.84;60.67
79244;SHT31;68672;42.676;23.356;2023-04-24T03:42:58;10.81;60.83
79244;SHT31;68672;42.676;23.356;2023-04-24T03:45:24;10.82;60.93
79244;SHT31;68672;42.676;23.356;2023-04-24T03:47:49;10.82;61.05
79244;SHT31;68672;42.676;23.356;2023-04-24T03:50:15;10.81;60.80
79244;SHT31;68672;42.676;23.356;2023-04-24T03:52:40;10.79;61.42
79244;SHT31;68672;42.676;23.356;2023-04-24T03:55:06;10.84;61.06
79244;SHT31;68672;42.676;23.356;2023-04-24T03:57:40;10.86;61.14
79244;SHT31;68672;42.676;23.356;2023-04-24T04:00:06;10.91;61.20
79244;SHT31;68672;42.676;23.356;2023-04-24T04:02:31;10.98;61.65
79244;SHT31;68672;42.676;23.356;2023-04-24T04:04:56;11.06;61.71
79244;SHT31;68672;42.676;23.356;2023-04-24T04:07:22;11.12;61.64
79244;SHT31;68672;42.676;23.356;2023-04-24T04:09:47;11.16;61.79
79244;SHT31;68672;42.676;23.356;2023-04-24T04:12:13;11.22;62.22
79244;SHT31;68672;42.676;23.356;2023-04-24T04:14:38;11.29;62.08
79244;SHT31;68672;42.676;23.356;2023-04-24T04:17:03;11.36;61.33
79244;SHT31;68672;42.676;23.356;2023-04-24T04:19:29;11.42;60.86
79244;SHT31;68672;42.676;23.356;2023-04-24T04:21:54;11.49;59.93
79244;SHT31;68672;42.676;23.356;2023-04-24T04:24:21;11.59;59.69
79244;SHT31;68672;42.676;23.356;2023-04-24T04:26:47;11.70;58.43
79244;SHT31;68672;42.676;23.356;2023-04-24T04:29:17;11.78;57.45
79244;SHT31;68672;42.676;23.356;2023-04-24T04:31:43;11.87;56.63
79244;SHT31;68672;42.676;23.356;2023-04-24T04:34:09;11.90;55.77
79244;SHT31;68672;42.676;23.356;2023-04-24T04:36:35;12.01;55.22
79244;SHT31;68672;42.676;23.356;2023-04-24T04:39:02;12.08;54.67
79244;SHT31;68672;42.676;23.356;2023-04-24T04:41:28;12.17;54.51
79244;SHT31;68672;42.676;23.356;2023-04-24T04:43:53;12.22;54.59
79244;SHT31;68672;42.676;23.356;2023-04-24T04:46:19;12.25;54.44
79244;SHT31;68672;42.676;23.356;2023-04-24T04:48:44;12.28;53.81
79244;SHT31;68672;42.676;23.356;2023-04-24T04:51:10;12.36;53.96
79244;SHT31;68672;42.676;23.356;2023-04-24T04:53:41;12.35;54.02
79244;SHT31;68672;42.676;23.356;2023-04-24T04:56:10;12.35;53.52
79244;SHT31;68672;42.676;23.356;2023-04-24T04:58:35;12.38;53.15
79244;SHT31;68672;42.676;23.356;2023-04-24T05:01:06;12.41;52.92
79244;SHT31;68672;42.676;23.356;2023-04-24T05:03:32;12.43;52.95
79244;SHT31;68672;42.676;23.356;2023-04-24T05:05:57;12.48;52.79
79244;SHT31;68672;42.676;23.356;2023-04-24T05:08:23;12.49;52.96
79244;SHT31;68672;42.676;23.356;2023-04-24T05:10:48;12.59;53.11
79244;SHT31;68672;42.676;23.356;2023-04-24T05:13:16;12.62;53.31
79244;SHT31;68672;42.676;23.356;2023-04-24T05:15:41;12.64;53.51
79244;SHT31;68672;42.676;23.356;2023-04-24T05:18:07;12.64;53.26
79244;SHT31;68672;42.676;23.356;2023-04-24T05:20:32;12.70;52.83
79244;SHT31;68672;42.676;23.356;2023-04-24T05:22:58;12.70;52.37
79244;SHT31;68672;42.676;23.356;2023-04-24T05:25:23;12.75;52.20
79244;SHT31;68672;42.676;23.356;2023-04-24T05:27:49;12.77;52.80
79244;SHT31;68672;42.676;23.356;2023-04-24T05:30:14;12.77;52.81
79244;SHT31;68672;42.676;23.356;2023-04-24T05:32:40;12.79;52.76
79244;SHT31;68672;42.676;23.356;2023-04-24T05:35:06;12.82;52.66
79244;SHT31;68672;42.676;23.356;2023-04-24T05:37:31;12.83;52.70
79244;SHT31;68672;42.676;23.356;2023-04-24T05:39:57;12.92;52.68
79244;SHT31;68672;42.676;23.356;2023-04-24T05:42:22;12.92;52.88
79244;SHT31;68672;42.676;23.356;2023-04-24T05:44:47;12.96;52.82
79244;SHT31;68672;42.676;23.356;2023-04-24T05:47:13;12.97;52.49
79244;SHT31;68672;42.676;23.356;2023-04-24T05:49:41;13.03;52.59
79244;SHT31;68672;42.676;23.356;2023-04-24T05:52:07;13.11;52.46
79244;SHT31;68672;42.676;23.356;2023-04-24T05:54:34;13.13;52.30
79244;SHT31;68672;42.676;23.356;2023-04-24T05:56:59;13.18;52.36
79244;SHT31;68672;42.676;23.356;2023-04-24T05:59:29;13.21;52.49
79244;SHT31;68672;42.676;23.356;2023-04-24T06:01:54;13.24;52.37
79244;SHT31;68672;42.676;23.356;2023-04-24T06:04:20;13.27;52.35
79244;SHT31;68672;42.676;23.356;2023-04-24T06:06:45;13.35;52.05
79244;SHT31;68672;42.676;23.356;2023-04-24T06:09:11;13.47;51.94
79244;SHT31;68672;42.676;23.356;2023-04-24T06:11:39;13.48;51.73
79244;SHT31;68672;42.676;23.356;2023-04-24T06:14:08;13.54;51.64
79244;SHT31;68672;42.676;23.356;2023-04-24T06:16:33;13.59;51.76
79244;SHT31;68672;42.676;23.356;2023-04-24T06:18:59;13.69;51.65
79244;SHT31;68672;42.676;23.356;2023-04-24T06:21:24;13.79;51.39
79244;SHT31;68672;42.676;23.356;2023-04-24T06:23:50;13.96;51.12
79244;SHT31;68672;42.676;23.356;2023-04-24T06:26:17;14.08;50.64
79244;SHT31;68672;42.676;23.356;2023-04-24T06:28:43;14.12;50.64
79244;SHT31;68672;42.676;23.356;2023-04-24T06:31:08;14.20;50.58
79244;SHT31;68672;42.676;23.356;2023-04-24T06:33:33;14.26;50.50
79244;SHT31;68672;42.676;23.356;2023-04-24T06:35:59;14.33;50.15
79244;SHT31;68672;42.676;23.356;2023-04-24T06:38:24;14.37;50.00
79244;SHT31;68672;42.676;23.356;2023-04-24T06:40:50;14.50;49.97
79244;SHT31;68672;42.676;23.356;2023-04-24T06:43:18;14.60;49.63
79244;SHT31;68672;42.676;23.356;2023-04-24T06:45:44;14.72;49.58
79244;SHT31;68672;42.676;23.356;2023-04-24T06:48:10;14.81;49.66
79244;SHT31;68672;42.676;23.356;2023-04-24T06:50:35;14.91;49.44
79244;SHT31;68672;42.676;23.356;2023-04-24T06:53:04;15.03;49.21
79244;SHT31;68672;42.676;23.356;2023-04-24T06:55:29;15.09;48.44
79244;SHT31;68672;42.676;23.356;2023-04-24T06:57:55;15.11;48.58
79244;SHT31;68672;42.676;23.356;2023-04-24T07:00:23;15.20;48.39
79244;SHT31;68672;42.676;23.356;2023-04-24T07:02:49;15.25;48.45
79244;SHT31;68672;42.676;23.356;2023-04-24T07:05:15;15.16;48.52
79244;SHT31;68672;42.676;23.356;2023-04-24T07:07:40;15.23;48.61
79244;SHT31;68672;42.676;23.356;2023-04-24T07:10:08;15.23;48.76
79244;SHT31;68672;42.676;23.356;2023-04-24T07:12:36;15.30;48.34
79244;SHT31;68672;42.676;23.356;2023-04-24T07:15:02;15.33;48.45
79244;SHT31;68672;42.676;23.356;2023-04-24T07:17:28;15.42;48.46
79244;SHT31;68672;42.676;23.356;2023-04-24T07:19:53;15.53;47.78
79244;SHT31;68672;42.676;23.356;2023-04-24T07:22:19;15.66;47.51
79244;SHT31;68672;42.676;23.356;2023-04-24T07:24:44;15.81;47.96
79244;SHT31;68672;42.676;23.356;2023-04-24T07:27:13;15.86;48.32
79244;SHT31;68672;42.676;23.356;2023-04-24T07:29:39;15.98;47.96
79244;SHT31;68672;42.676;23.356;2023-04-24T07:32:05;16.05;47.69
79244;SHT31;68672;42.676;23.356;2023-04-24T07:34:33;16.17;46.99
79244;SHT31;68672;42.676;23.356;2023-04-24T07:36:59;16.19;46.77
79244;SHT31;68672;42.676;23.356;2023-04-24T07:39:24;16.22;47.04
79244;SHT31;68672;42.676;23.356;2023-04-24T07:41:51;16.31;47.38
79244;SHT31;68672;42.676;23.356;2023-04-24T07:44:17;16.42;47.05
79244;SHT31;68672;42.676;23.356;2023-04-24T07:46:45;16.53;45.63
79244;SHT31;68672;42.676;23.356;2023-04-24T07:49:10;16.55;46.01
79244;SHT31;68672;42.676;23.356;2023-04-24T07:51:36;16.59;45.61
79244;SHT31;68672;42.676;23.356;2023-04-24T07:54:04;16.65;45.18
79244;SHT31;68672;42.676;23.356;2023-04-24T07:56:34;16.75;45.66
79244;SHT31;68672;42.676;23.356;2023-04-24T07:59:04;16.86;45.42
79244;SHT31;68672;42.676;23.356;2023-04-24T08:01:29;16.97;45.54
79244;SHT31;68672;42.676;23.356;2023-04-24T08:03:55;17.08;45.01
79244;SHT31;68672;42.676;23.356;2023-04-24T08:06:21;17.10;44.80
79244;SHT31;68672;42.676;23.356;2023-04-24T08:08:46;17.20;45.12
79244;SHT31;68672;42.676;23.356;2023-04-24T08:11:12;17.27;44.69
79244;SHT31;68672;42.676;23.356;2023-04-24T08:13:37;17.39;44.36
79244;SHT31;68672;42.676;23.356;2023-04-24T08:16:03;17.54;44.02
79244;SHT31;68672;42.676;23.356;2023-04-24T08:18:28;17.62;44.39
79244;SHT31;68672;42.676;23.356;2023-04-24T08:20:53;17.78;44.14
79244;SHT31;68672;42.676;23.356;2023-04-24T08:23:19;17.93;43.79
79244;SHT31;68672;42.676;23.356;2023-04-24T08:25:44;18.09;43.64
79244;SHT31;68672;42.676;23.356;2023-04-24T08:28:10;18.25;43.40
79244;SHT31;68672;42.676;23.356;2023-04-24T08:30:36;18.40;42.29
79244;SHT31;68672;42.676;23.356;2023-04-24T08:33:02;18.44;41.73
79244;SHT31;68672;42.676;23.356;2023-04-24T08:35:27;18.40;42.01
79244;SHT31;68672;42.676;23.356;2023-04-24T08:37:53;18.46;42.37
79244;SHT31;68672;42.676;23.356;2023-04-24T08:40:23;18.57;42.18
79244;SHT31;68672;42.676;23.356;2023-04-24T08:42:53;18.65;42.15
79244;SHT31;68672;42.676;23.356;2023-04-24T08:45:19;18.78;42.44
79244;SHT31;68672;42.676;23.356;2023-04-24T08:47:45;18.91;41.84
79244;SHT31;68672;42.676;23.356;2023-04-24T08:50:11;19.01;41.13
79244;SHT31;68672;42.676;23.356;2023-04-24T08:52:37;19.06;41.40
79244;SHT31;68672;42.676;23.356;2023-04-24T08:55:02;19.14;40.40
79244;SHT31;68672;42.676;23.356;2023-04-24T08:57:28;19.16;40.84
79244;SHT31;68672;42.676;23.356;2023-04-24T08:59:54;19.29;41.18
79244;SHT31;68672;42.676;23.356;2023-04-24T09:02:21;19.45;40.92
79244;SHT31;68672;42.676;23.356;2023-04-24T09:04:48;19.73;39.93
79244;SHT31;68672;42.676;23.356;2023-04-24T09:07:16;19.86;39.80
79244;SHT31;68672;42.676;23.356;2023-04-24T09:09:42;20.08;39.44
79244;SHT31;68672;42.676;23.356;2023-04-24T09:12:07;20.35;38.89
79244;SHT31;68672;42.676;23.356;2023-04-24T09:14:35;20.66;37.68
79244;SHT31;68672;42.676;23.356;2023-04-24T09:17:04;20.87;37.54
79244;SHT31;68672;42.676;23.356;2023-04-24T09:19:29;20.99;37.25
79244;SHT31;68672;42.676;23.356;2023-04-24T09:21:55;21.14;37.02
79244;SHT31;68672;42.676;23.356;2023-04-24T09:24:21;21.22;37.08
79244;SHT31;68672;42.676;23.356;2023-04-24T09:26:58;21.17;35.30
79244;SHT31;68672;42.676;23.356;2023-04-24T09:29:24;21.02;35.75
79244;SHT31;68672;42.676;23.356;2023-04-24T09:31:50;20.90;36.21
79244;SHT31;68672;42.676;23.356;2023-04-24T09:34:21;20.99;36.58
79244;SHT31;68672;42.676;23.356;2023-04-24T09:36:47;21.07;36.71
79244;SHT31;68672;42.676;23.356;2023-04-24T09:39:15;21.22;36.21
79244;SHT31;68672;42.676;23.356;2023-04-24T09:41:51;21.37;36.45
79244;SHT31;68672;42.676;23.356;2023-04-24T09:44:17;21.58;35.76
79244;SHT31;68672;42.676;23.356;2023-04-24T09:46:52;21.69;35.66
79244;SHT31;68672;42.676;23.356;2023-04-24T09:49:29;21.72;35.45
79244;SHT31;68672;42.676;23.356;2023-04-24T09:54:29;21.72;34.88
79244;SHT31;68672;42.676;23.356;2023-04-24T09:56:55;21.66;35.54
79244;SHT31;68672;42.676;23.356;2023-04-24T09:59:21;21.77;35.68
79244;SHT31;68672;42.676;23.356;2023-04-24T10:01:47;21.92;35.29
79244;SHT31;68672;42.676;23.356;2023-04-24T10:04:25;22.08;35.18
79244;SHT31;68672;42.676;23.356;2023-04-24T10:06:52;22.20;34.67
79244;SHT31;68672;42.676;23.356;2023-04-24T10:09:19;22.33;34.66
79244;SHT31;68672;42.676;23.356;2023-04-24T10:11:48;22.47;34.15
79244;SHT31;68672;42.676;23.356;2023-04-24T10:14:18;22.67;34.42
79244;SHT31;68672;42.676;23.356;2023-04-24T10:16:46;22.91;34.29
79244;SHT31;68672;42.676;23.356;2023-04-24T10:19:17;23.14;33.41
79244;SHT31;68672;42.676;23.356;2023-04-24T10:21:46;23.22;32.02
79244;SHT31;68672;42.676;23.356;2023-04-24T10:24:13;23.18;32.46
79244;SHT31;68672;42.676;23.356;2023-04-24T10:26:40;23.32;32.92
79244;SHT31;68672;42.676;23.356;2023-04-24T10:29:05;23.59;32.15
79244;SHT31;68672;42.676;23.356;2023-04-24T10:31:36;23.80;32.27
79244;SHT31;68672;42.676;23.356;2023-04-24T10:34:02;23.94;31.80
79244;SHT31;68672;42.676;23.356;2023-04-24T10:36:29;24.16;31.59
79244;SHT31;68672;42.676;23.356;2023-04-24T10:38:59;24.41;31.32
79244;SHT31;68672;42.676;23.356;2023-04-24T10:41:25;24.65;30.61
79244;SHT31;68672;42.676;23.356;2023-04-24T10:44:05;24.83;30.85
79244;SHT31;68672;42.676;23.356;2023-04-24T10:46:32;24.95;30.60
79244;SHT31;68672;42.676;23.356;2023-04-24T10:48:57;25.03;30.11
79244;SHT31;68672;42.676;23.356;2023-04-24T10:51:24;25.26;29.80
79244;SHT31;68672;42.676;23.356;2023-04-24T10:53:51;25.54;29.25
79244;SHT31;68672;42.676;23.356;2023-04-24T10:56:17;25.95;28.45
79244;SHT31;68672;42.676;23.356;2023-04-24T11:01:27;26.46;27.59
79244;SHT31;68672;42.676;23.356;2023-04-24T11:04:00;26.38;28.00
79244;SHT31;68672;42.676;23.356;2023-04-24T11:06:34;26.38;27.48
79244;SHT31;68672;42.676;23.356;2023-04-24T11:09:10;26.18;27.64
79244;SHT31;68672;42.676;23.356;2023-04-24T11:11:45;25.89;27.88
79244;SHT31;68672;42.676;23.356;2023-04-24T11:14:14;25.64;28.37
79244;SHT31;68672;42.676;23.356;2023-04-24T11:16:53;25.34;28.60
79244;SHT31;68672;42.676;23.356;2023-04-24T11:19:24;25.02;29.86
79244;SHT31;68672;42.676;23.356;2023-04-24T11:22:01;24.59;30.57
79244;SHT31;68672;42.676;23.356;2023-04-24T11:29:45;23.35;31.84
79244;SHT31;68672;42.676;23.356;2023-04-24T11:32:25;22.95;32.86
79244;SHT31;68672;42.676;23.356;2023-04-24T11:34:53;22.65;38.07
79244;SHT31;68672;42.676;23.356;2023-04-24T11:37:18;22.92;39.98
79244;SHT31;68672;42.676;23.356;2023-04-24T11:39:44;23.41;38.09
79244;SHT31;68672;42.676;23.356;2023-04-24T11:42:09;23.35;36.27
79244;SHT31;68672;42.676;23.356;2023-04-24T11:44:35;22.74;36.88
79244;SHT31;68672;42.676;23.356;2023-04-24T11:47:05;22.40;34.22
79244;SHT31;68672;42.676;23.356;2023-04-24T11:49:31;22.09;35.34
79244;SHT31;68672;42.676;23.356;2023-04-24T11:51:56;21.91;36.10
79244;SHT31;68672;42.676;23.356;2023-04-24T11:54:22;21.77;35.94
79244;SHT31;68672;42.676;23.356;2023-04-24T11:56:48;21.79;36.22
79244;SHT31;68672;42.676;23.356;2023-04-24T11:59:13;21.99;37.09
79244;SHT31;68672;42.676;23.356;2023-04-24T12:01:43;22.06;35.93
79244;SHT31;68672;42.676;23.356;2023-04-24T12:04:09;22.08;36.38
79244;SHT31;68672;42.676;23.356;2023-04-24T12:06:35;22.17;35.06
79244;SHT31;68672;42.676;23.356;2023-04-24T12:09:00;22.32;34.71
79244;SHT31;68672;42.676;23.356;2023-04-24T12:11:26;22.32;34.10
79244;SHT31;68672;42.676;23.356;2023-04-24T12:13:51;22.26;34.81
79244;SHT31;68672;42.676;23.356;2023-04-24T12:16:17;22.32;35.16
79244;SHT31;68672;42.676;23.356;2023-04-24T12:18:45;22.35;35.22
79244;SHT31;68672;42.676;23.356;2023-04-24T12:21:21;22.24;35.44
79244;SHT31;68672;42.676;23.356;2023-04-24T12:23:48;22.12;36.15
79244;SHT31;68672;42.676;23.356;2023-04-24T12:26:22;21.93;36.30
79244;SHT31;68672;42.676;23.356;2023-04-24T12:28:49;21.69;36.24
79244;SHT31;68672;42.676;23.356;2023-04-24T12:31:20;21.69;36.07
79244;SHT31;68672;42.676;23.356;2023-04-24T12:33:45;21.48;35.96
79244;SHT31;68672;42.676;23.356;2023-04-24T12:36:11;21.44;35.69
79244;SHT31;68672;42.676;23.356;2023-04-24T12:38:37;21.33;36.02
79244;SHT31;68672;42.676;23.356;2023-04-24T12:41:13;21.47;35.83
79244;SHT31;68672;42.676;23.356;2023-04-24T12:43:50;21.54;35.90
79244;SHT31;68672;42.676;23.356;2023-04-24T12:46:16;21.40;36.20
79244;SHT31;68672;42.676;23.356;2023-04-24T12:48:44;21.19;36.84
79244;SHT31;68672;42.676;23.356;2023-04-24T12:51:09;21.03;36.52
79244;SHT31;68672;42.676;23.356;2023-04-24T12:53:36;21.08;36.94
79244;SHT31;68672;42.676;23.356;2023-04-24T12:56:01;21.45;36.49
79244;SHT31;68672;42.676;23.356;2023-04-24T12:58:29;21.82;35.59
79244;SHT31;68672;42.676;23.356;2023-04-24T13:00:55;21.69;35.92
79244;SHT31;68672;42.676;23.356;2023-04-24T13:03:20;21.43;36.36
79244;SHT31;68672;42.676;23.356;2023-04-24T13:05:47;21.28;36.80
79244;SHT31;68672;42.676;23.356;2023-04-24T13:08:13;21.19;37.10
79244;SHT31;68672;42.676;23.356;2023-04-24T13:10:38;21.22;36.89
79244;SHT31;68672;42.676;23.356;2023-04-24T13:13:04;21.51;35.59
79244;SHT31;68672;42.676;23.356;2023-04-24T13:15:30;22.16;34.76
79244;SHT31;68672;42.676;23.356;2023-04-24T13:17:55;22.67;34.04
79244;SHT31;68672;42.676;23.356;2023-04-24T13:20:21;23.15;33.41
79244;SHT31;68672;42.676;23.356;2023-04-24T13:22:46;23.83;32.41
79244;SHT31;68672;42.676;23.356;2023-04-24T13:25:12;23.93;31.95
79244;SHT31;68672;42.676;23.356;2023-04-24T13:27:40;24.00;32.07
79244;SHT31;68672;42.676;23.356;2023-04-24T13:30:06;24.31;31.89
79244;SHT31;68672;42.676;23.356;2023-04-24T13:32:32;24.99;31.26
79244;SHT31;68672;42.676;23.356;2023-04-24T13:34:58;25.46;30.28
79244;SHT31;68672;42.676;23.356;2023-04-24T13:37:24;26.24;29.83
79244;SHT31;68672;42.676;23.356;2023-04-24T13:39:49;27.42;27.78
79244;SHT31;68672;42.676;23.356;2023-04-24T13:42:15;28.51;26.63
79244;SHT31;68672;42.676;23.356;2023-04-24T13:44:41;29.20;26.21
79244;SHT31;68672;42.676;23.356;2023-04-24T13:47:06;29.39;25.48
79244;SHT31;68672;42.676;23.356;2023-04-24T13:49:32;28.96;25.79
79244;SHT31;68672;42.676;23.356;2023-04-24T13:52:00;28.94;26.11
79244;SHT31;68672;42.676;23.356;2023-04-24T13:54:31;28.96;26.19
79244;SHT31;68672;42.676;23.356;2023-04-24T13:56:57;28.74;26.15
79244;SHT31;68672;42.676;23.356;2023-04-24T13:59:23;28.36;26.67
79244;SHT31;68672;42.676;23.356;2023-04-24T14:01:49;28.10;27.28
79244;SHT31;68672;42.676;23.356;2023-04-24T14:04:15;28.32;27.56
79244;SHT31;68672;42.676;23.356;2023-04-24T14:06:40;28.34;27.78
79244;SHT31;68672;42.676;23.356;2023-04-24T14:09:06;27.99;27.94
79244;SHT31;68672;42.676;23.356;2023-04-24T14:11:33;27.82;28.20
79244;SHT31;68672;42.676;23.356;2023-04-24T14:13:59;27.31;28.51
79244;SHT31;68672;42.676;23.356;2023-04-24T14:16:28;27.34;29.20
79244;SHT31;68672;42.676;23.356;2023-04-24T14:18:53;27.69;28.96
79244;SHT31;68672;42.676;23.356;2023-04-24T14:21:19;27.99;28.55
79244;SHT31;68672;42.676;23.356;2023-04-24T14:23:44;28.09;28.43
79244;SHT31;68672;42.676;23.356;2023-04-24T14:26:10;28.05;28.32
79244;SHT31;68672;42.676;23.356;2023-04-24T14:28:36;27.48;28.95
79244;SHT31;68672;42.676;23.356;2023-04-24T14:31:01;26.77;29.82
79244;SHT31;68672;42.676;23.356;2023-04-24T14:33:27;25.80;31.94
79244;SHT31;68672;42.676;23.356;2023-04-24T14:35:52;24.69;34.31
79244;SHT31;68672;42.676;23.356;2023-04-24T14:38:21;23.99;35.53
79244;SHT31;68672;42.676;23.356;2023-04-24T14:40:46;23.45;36.28
79244;SHT31;68672;42.676;23.356;2023-04-24T14:43:12;22.91;36.14
79244;SHT31;68672;42.676;23.356;2023-04-24T14:45:37;22.70;35.65
79244;SHT31;68672;42.676;23.356;2023-04-24T14:48:03;22.42;36.62
79244;SHT31;68672;42.676;23.356;2023-04-24T14:50:29;22.08;37.13
79244;SHT31;68672;42.676;23.356;2023-04-24T14:52:57;21.71;37.94
79244;SHT31;68672;42.676;23.356;2023-04-24T14:55:23;21.37;38.16
79244;SHT31;68672;42.676;23.356;2023-04-24T14:57:49;21.10;38.19
79244;SHT31;68672;42.676;23.356;2023-04-24T15:00:15;20.92;38.58
79244;SHT31;68672;42.676;23.356;2023-04-24T15:02:42;20.65;38.32
79244;SHT31;68672;42.676;23.356;2023-04-24T15:05:10;20.45;41.42
79244;SHT31;68672;42.676;23.356;2023-04-24T15:07:35;20.26;43.73
79244;SHT31;68672;42.676;23.356;2023-04-24T15:10:02;20.03;43.84
79244;SHT31;68672;42.676;23.356;2023-04-24T15:12:27;19.71;44.40
79244;SHT31;68672;42.676;23.356;2023-04-24T15:14:54;19.40;45.68
79244;SHT31;68672;42.676;23.356;2023-04-24T15:17:19;19.19;45.69
79244;SHT31;68672;42.676;23.356;2023-04-24T15:19:45;19.01;46.77
79244;SHT31;68672;42.676;23.356;2023-04-24T15:22:10;18.83;47.80